sensor_id;sensor_type;location;lat;lon;timestamp;P1;durP1;ratioP1;P2;durP2;ratioP2
16510;SDS011;8368;48.772;8.754;2023-05-07T00:02:20;1.40;;;1.40;;
16510;SDS011;8368;48.772;8.754;2023-05-07T00:04:46;1.40;;;1.40;;
16510;SDS011;8368;48.772;8.754;2023-05-07T00:07:11;1.13;;;1.13;;
16510;SDS011;8368;48.772;8.754;2023-05-07T00:09:37;2.93;;;1.43;;
16510;SDS011;8368;48.772;8.754;2023-05-07T00:12:02;1.17;;;1.17;;
16510;SDS011;8368;48.772;8.754;2023-05-07T00:14:28;2.40;;;1.30;;
16510;SDS011;8368;48.772;8.754;2023-05-07T00:16:55;1.33;;;1.30;;
16510;SDS011;8368;48.772;8.754;2023-05-07T00:19:20;1.37;;;1.37;;
16510;SDS011;8368;48.772;8.754;2023-05-07T00:21:46;1.57;;;1.50;;
16510;SDS011;8368;48.772;8.754;2023-05-07T00:24:12;1.23;;;1.23;;
16510;SDS011;8368;48.772;8.754;2023-05-07T00:26:37;1.50;;;1.50;;
16510;SDS011;8368;48.772;8.754;2023-05-07T00:29:03;1.60;;;1.50;;
16510;SDS011;8368;48.772;8.754;2023-05-07T00:31:28;1.53;;;1.50;;
16510;SDS011;8368;48.772;8.754;2023-05-07T00:33:54;1.30;;;1.30;;
16510;SDS011;8368;48.772;8.754;2023-05-07T00:36:19;1.40;;;1.37;;
16510;SDS011;8368;48.772;8.754;2023-05-07T00:38:45;1.57;;;1.57;;
16510;SDS011;8368;48.772;8.754;2023-05-07T00:41:10;1.30;;;1.30;;
16510;SDS011;8368;48.772;8.754;2023-05-07T00:43:36;1.03;;;1.03;;
16510;SDS011;8368;48.772;8.754;2023-05-07T00:46:01;1.07;;;1.07;;
16510;SDS011;8368;48.772;8.754;2023-05-07T00:48:27;0.90;;;0.90;;
16510;SDS011;8368;48.772;8.754;2023-05-07T00:50:52;1.50;;;1.40;;
16510;SDS011;8368;48.772;8.754;2023-05-07T00:53:18;1.50;;;1.40;;
16510;SDS011;8368;48.772;8.754;2023-05-07T00:55:44;1.53;;;1.43;;
16510;SDS011;8368;48.772;8.754;2023-05-07T00:58:10;1.50;;;1.50;;
16510;SDS011;8368;48.772;8.754;2023-05-07T01:00:35;1.23;;;1.23;;
16510;SDS011;8368;48.772;8.754;2023-05-07T01:03:01;1.40;;;1.40;;
16510;SDS011;8368;48.772;8.754;2023-05-07T01:05:26;1.33;;;1.33;;
16510;SDS011;8368;48.772;8.754;2023-05-07T01:07:53;1.50;;;1.50;;
16510;SDS011;8368;48.772;8.754;2023-05-07T01:10:20;2.13;;;1.33;;
16510;SDS011;8368;48.772;8.754;2023-05-07T01:12:45;1.67;;;1.37;;
16510;SDS011;8368;48.772;8.754;2023-05-07T01:15:13;1.47;;;1.47;;
16510;SDS011;8368;48.772;8.754;2023-05-07T01:17:39;1.50;;;1.50;;
16510;SDS011;8368;48.772;8.754;2023-05-07T01:20:07;1.43;;;1.43;;
16510;SDS011;8368;48.772;8.754;2023-05-07T01:22:35;1.60;;;1.50;;
16510;SDS011;8368;48.772;8.754;2023-05-07T01:25:02;1.60;;;1.60;;
16510;SDS011;8368;48.772;8.754;2023-05-07T01:27:28;1.57;;;1.57;;
16510;SDS011;8368;48.772;8.754;2023-05-07T01:29:54;1.50;;;1.50;;
16510;SDS011;8368;48.772;8.754;2023-05-07T01:32:29;1.67;;;1.57;;
16510;SDS011;8368;48.772;8.754;2023-05-07T01:35:13;1.17;;;1.17;;
16510;SDS011;8368;48.772;8.754;2023-05-07T01:37:44;1.40;;;1.30;;
16510;SDS011;8368;48.772;8.754;2023-05-07T01:40:11;1.87;;;1.77;;
16510;SDS011;8368;48.772;8.754;2023-05-07T01:42:37;1.33;;;1.33;;
16510;SDS011;8368;48.772;8.754;2023-05-07T01:45:03;2.87;;;1.53;;
16510;SDS011;8368;48.772;8.754;2023-05-07T01:47:29;1.60;;;1.50;;
16510;SDS011;8368;48.772;8.754;2023-05-07T01:49:55;1.50;;;1.47;;
16510;SDS011;8368;48.772;8.754;2023-05-07T01:52:20;2.03;;;1.93;;
16510;SDS011;8368;48.772;8.754;2023-05-07T01:54:46;1.50;;;1.40;;
16510;SDS011;8368;48.772;8.754;2023-05-07T01:57:11;2.00;;;1.80;;
16510;SDS011;8368;48.772;8.754;2023-05-07T01:59:37;1.53;;;1.43;;
16510;SDS011;8368;48.772;8.754;2023-05-07T02:02:02;1.30;;;1.30;;
16510;SDS011;8368;48.772;8.754;2023-05-07T02:04:28;1.30;;;1.30;;
16510;SDS011;8368;48.772;8.754;2023-05-07T02:06:57;1.40;;;1.40;;
16510;SDS011;8368;48.772;8.754;2023-05-07T02:09:22;2.30;;;1.73;;
16510;SDS011;8368;48.772;8.754;2023-05-07T02:11:48;0.97;;;0.97;;
16510;SDS011;8368;48.772;8.754;2023-05-07T02:14:14;1.70;;;1.60;;
16510;SDS011;8368;48.772;8.754;2023-05-07T02:16:40;2.03;;;1.37;;
16510;SDS011;8368;48.772;8.754;2023-05-07T02:19:06;2.13;;;1.33;;
16510;SDS011;8368;48.772;8.754;2023-05-07T02:21:31;1.40;;;1.30;;
16510;SDS011;8368;48.772;8.754;2023-05-07T02:23:56;1.60;;;1.60;;
16510;SDS011;8368;48.772;8.754;2023-05-07T02:26:22;3.07;;;1.57;;
16510;SDS011;8368;48.772;8.754;2023-05-07T02:28:47;2.10;;;1.90;;
16510;SDS011;8368;48.772;8.754;2023-05-07T02:31:13;1.60;;;1.60;;
16510;SDS011;8368;48.772;8.754;2023-05-07T02:33:39;1.80;;;1.53;;
16510;SDS011;8368;48.772;8.754;2023-05-07T02:36:05;1.60;;;1.50;;
16510;SDS011;8368;48.772;8.754;2023-05-07T02:38:32;1.60;;;1.60;;
16510;SDS011;8368;48.772;8.754;2023-05-07T02:40:57;1.40;;;1.40;;
16510;SDS011;8368;48.772;8.754;2023-05-07T02:43:23;1.23;;;1.23;;
16510;SDS011;8368;48.772;8.754;2023-05-07T02:45:48;1.60;;;1.50;;
16510;SDS011;8368;48.772;8.754;2023-05-07T02:48:14;1.60;;;1.60;;
16510;SDS011;8368;48.772;8.754;2023-05-07T02:50:39;1.40;;;1.40;;
16510;SDS011;8368;48.772;8.754;2023-05-07T02:53:05;1.30;;;1.30;;
16510;SDS011;8368;48.772;8.754;2023-05-07T02:55:31;2.03;;;1.93;;
16510;SDS011;8368;48.772;8.754;2023-05-07T02:57:57;1.10;;;1.10;;
16510;SDS011;8368;48.772;8.754;2023-05-07T03:00:22;1.30;;;1.30;;
16510;SDS011;8368;48.772;8.754;2023-05-07T03:02:48;1.83;;;1.60;;
16510;SDS011;8368;48.772;8.754;2023-05-07T03:05:14;3.13;;;1.60;;
16510;SDS011;8368;48.772;8.754;2023-05-07T03:07:39;1.50;;;1.33;;
16510;SDS011;8368;48.772;8.754;2023-05-07T03:10:09;1.47;;;1.47;;
16510;SDS011;8368;48.772;8.754;2023-05-07T03:12:34;1.70;;;1.67;;
16510;SDS011;8368;48.772;8.754;2023-05-07T03:15:00;1.53;;;1.47;;
16510;SDS011;8368;48.772;8.754;2023-05-07T03:17:26;1.43;;;1.43;;
16510;SDS011;8368;48.772;8.754;2023-05-07T03:19:51;1.83;;;1.83;;
16510;SDS011;8368;48.772;8.754;2023-05-07T03:22:17;1.63;;;1.60;;
16510;SDS011;8368;48.772;8.754;2023-05-07T03:24:42;1.83;;;1.73;;
16510;SDS011;8368;48.772;8.754;2023-05-07T03:27:08;1.13;;;1.13;;
16510;SDS011;8368;48.772;8.754;2023-05-07T03:29:33;2.00;;;1.90;;
16510;SDS011;8368;48.772;8.754;2023-05-07T03:31:59;1.53;;;1.53;;
16510;SDS011;8368;48.772;8.754;2023-05-07T03:34:24;2.43;;;1.73;;
16510;SDS011;8368;48.772;8.754;2023-05-07T03:36:50;1.47;;;1.40;;
16510;SDS011;8368;48.772;8.754;2023-05-07T03:39:16;1.87;;;1.77;;
16510;SDS011;8368;48.772;8.754;2023-05-07T03:41:41;1.60;;;1.60;;
16510;SDS011;8368;48.772;8.754;2023-05-07T03:44:07;1.60;;;1.60;;
16510;SDS011;8368;48.772;8.754;2023-05-07T03:46:33;1.37;;;1.37;;
16510;SDS011;8368;48.772;8.754;2023-05-07T03:48:59;1.70;;;1.60;;
16510;SDS011;8368;48.772;8.754;2023-05-07T03:51:25;1.67;;;1.57;;
16510;SDS011;8368;48.772;8.754;2023-05-07T03:53:51;1.70;;;1.60;;
16510;SDS011;8368;48.772;8.754;2023-05-07T03:56:22;1.57;;;1.57;;
16510;SDS011;8368;48.772;8.754;2023-05-07T03:58:47;1.60;;;1.60;;
16510;SDS011;8368;48.772;8.754;2023-05-07T04:01:13;1.90;;;1.80;;
16510;SDS011;8368;48.772;8.754;2023-05-07T04:03:39;2.30;;;2.10;;
16510;SDS011;8368;48.772;8.754;2023-05-07T04:06:04;1.63;;;1.50;;
16510;SDS011;8368;48.772;8.754;2023-05-07T04:08:30;1.80;;;1.80;;
16510;SDS011;8368;48.772;8.754;2023-05-07T04:10:56;4.77;;;1.97;;
16510;SDS011;8368;48.772;8.754;2023-05-07T04:13:23;1.50;;;1.50;;
16510;SDS011;8368;48.772;8.754;2023-05-07T04:15:48;1.90;;;1.80;;
16510;SDS011;8368;48.772;8.754;2023-05-07T04:18:14;1.90;;;1.80;;
16510;SDS011;8368;48.772;8.754;2023-05-07T04:20:40;1.90;;;1.83;;
16510;SDS011;8368;48.772;8.754;2023-05-07T04:23:06;2.00;;;1.67;;
16510;SDS011;8368;48.772;8.754;2023-05-07T04:25:32;1.53;;;1.53;;
16510;SDS011;8368;48.772;8.754;2023-05-07T04:27:58;2.33;;;1.80;;
16510;SDS011;8368;48.772;8.754;2023-05-07T04:30:23;7.20;;;1.73;;
16510;SDS011;8368;48.772;8.754;2023-05-07T04:32:49;2.10;;;2.00;;
16510;SDS011;8368;48.772;8.754;2023-05-07T04:35:14;1.53;;;1.53;;
16510;SDS011;8368;48.772;8.754;2023-05-07T04:37:40;1.77;;;1.67;;
16510;SDS011;8368;48.772;8.754;2023-05-07T04:40:06;1.20;;;1.17;;
16510;SDS011;8368;48.772;8.754;2023-05-07T04:42:32;1.67;;;1.67;;
16510;SDS011;8368;48.772;8.754;2023-05-07T04:44:57;1.40;;;1.30;;
16510;SDS011;8368;48.772;8.754;2023-05-07T04:47:23;3.77;;;2.20;;
16510;SDS011;8368;48.772;8.754;2023-05-07T04:49:49;1.87;;;1.80;;
16510;SDS011;8368;48.772;8.754;2023-05-07T04:52:14;1.47;;;1.47;;
16510;SDS011;8368;48.772;8.754;2023-05-07T04:54:40;1.33;;;1.33;;
16510;SDS011;8368;48.772;8.754;2023-05-07T04:57:05;1.67;;;1.57;;
16510;SDS011;8368;48.772;8.754;2023-05-07T04:59:32;1.80;;;1.70;;
16510;SDS011;8368;48.772;8.754;2023-05-07T05:01:58;1.50;;;1.50;;
16510;SDS011;8368;48.772;8.754;2023-05-07T05:04:23;1.40;;;1.40;;
16510;SDS011;8368;48.772;8.754;2023-05-07T05:06:49;1.60;;;1.60;;
16510;SDS011;8368;48.772;8.754;2023-05-07T05:09:15;2.50;;;1.73;;
16510;SDS011;8368;48.772;8.754;2023-05-07T05:11:41;1.50;;;1.50;;
16510;SDS011;8368;48.772;8.754;2023-05-07T05:14:06;1.60;;;1.50;;
16510;SDS011;8368;48.772;8.754;2023-05-07T05:16:32;1.33;;;1.30;;
16510;SDS011;8368;48.772;8.754;2023-05-07T05:18:57;1.93;;;1.83;;
16510;SDS011;8368;48.772;8.754;2023-05-07T05:21:23;1.60;;;1.53;;
16510;SDS011;8368;48.772;8.754;2023-05-07T05:23:49;3.80;;;1.80;;
16510;SDS011;8368;48.772;8.754;2023-05-07T05:26:14;1.70;;;1.60;;
16510;SDS011;8368;48.772;8.754;2023-05-07T05:28:40;1.80;;;1.70;;
16510;SDS011;8368;48.772;8.754;2023-05-07T05:31:05;1.83;;;1.73;;
16510;SDS011;8368;48.772;8.754;2023-05-07T05:33:31;1.73;;;1.70;;
16510;SDS011;8368;48.772;8.754;2023-05-07T05:35:56;1.63;;;1.63;;
16510;SDS011;8368;48.772;8.754;2023-05-07T05:38:22;1.80;;;1.80;;
16510;SDS011;8368;48.772;8.754;2023-05-07T05:40:47;2.03;;;1.93;;
16510;SDS011;8368;48.772;8.754;2023-05-07T05:43:13;1.50;;;1.50;;
16510;SDS011;8368;48.772;8.754;2023-05-07T05:45:39;2.23;;;2.13;;
16510;SDS011;8368;48.772;8.754;2023-05-07T05:48:05;2.23;;;2.13;;
16510;SDS011;8368;48.772;8.754;2023-05-07T05:50:30;1.90;;;1.90;;
16510;SDS011;8368;48.772;8.754;2023-05-07T05:52:56;2.17;;;1.98;;
16510;SDS011;8368;48.772;8.754;2023-05-07T05:55:22;2.43;;;2.33;;
16510;SDS011;8368;48.772;8.754;2023-05-07T05:57:48;2.27;;;2.17;;
16510;SDS011;8368;48.772;8.754;2023-05-07T06:00:15;1.70;;;1.70;;
16510;SDS011;8368;48.772;8.754;2023-05-07T06:02:41;1.93;;;1.93;;
16510;SDS011;8368;48.772;8.754;2023-05-07T06:05:07;3.72;;;2.33;;
16510;SDS011;8368;48.772;8.754;2023-05-07T06:07:33;1.77;;;1.70;;
16510;SDS011;8368;48.772;8.754;2023-05-07T06:09:59;1.67;;;1.67;;
16510;SDS011;8368;48.772;8.754;2023-05-07T06:12:25;2.13;;;2.03;;
16510;SDS011;8368;48.772;8.754;2023-05-07T06:14:51;1.85;;;1.80;;
16510;SDS011;8368;48.772;8.754;2023-05-07T06:17:17;1.73;;;1.73;;
16510;SDS011;8368;48.772;8.754;2023-05-07T06:19:42;2.17;;;2.08;;
16510;SDS011;8368;48.772;8.754;2023-05-07T06:22:08;2.97;;;2.33;;
16510;SDS011;8368;48.772;8.754;2023-05-07T06:24:34;1.73;;;1.73;;
16510;SDS011;8368;48.772;8.754;2023-05-07T06:26:59;2.00;;;1.90;;
16510;SDS011;8368;48.772;8.754;2023-05-07T06:29:25;2.40;;;2.30;;
16510;SDS011;8368;48.772;8.754;2023-05-07T06:31:52;2.10;;;1.95;;
16510;SDS011;8368;48.772;8.754;2023-05-07T06:34:18;2.20;;;2.10;;
16510;SDS011;8368;48.772;8.754;2023-05-07T06:36:43;2.30;;;2.15;;
16510;SDS011;8368;48.772;8.754;2023-05-07T06:39:09;2.30;;;2.17;;
16510;SDS011;8368;48.772;8.754;2023-05-07T06:41:34;1.90;;;1.90;;
16510;SDS011;8368;48.772;8.754;2023-05-07T06:44:01;2.28;;;2.17;;
16510;SDS011;8368;48.772;8.754;2023-05-07T06:46:27;1.90;;;1.80;;
16510;SDS011;8368;48.772;8.754;2023-05-07T06:48:53;4.50;;;2.53;;
16510;SDS011;8368;48.772;8.754;2023-05-07T06:51:19;1.90;;;1.80;;
16510;SDS011;8368;48.772;8.754;2023-05-07T06:53:44;2.42;;;2.30;;
16510;SDS011;8368;48.772;8.754;2023-05-07T06:56:10;2.05;;;1.95;;
16510;SDS011;8368;48.772;8.754;2023-05-07T06:58:35;2.10;;;2.10;;
16510;SDS011;8368;48.772;8.754;2023-05-07T07:01:01;2.25;;;2.15;;
16510;SDS011;8368;48.772;8.754;2023-05-07T07:03:27;1.92;;;1.83;;
16510;SDS011;8368;48.772;8.754;2023-05-07T07:05:53;2.10;;;2.00;;
16510;SDS011;8368;48.772;8.754;2023-05-07T07:08:19;2.45;;;2.40;;
16510;SDS011;8368;48.772;8.754;2023-05-07T07:10:46;2.60;;;2.40;;
16510;SDS011;8368;48.772;8.754;2023-05-07T07:13:12;2.10;;;2.10;;
16510;SDS011;8368;48.772;8.754;2023-05-07T07:15:38;2.50;;;2.30;;
16510;SDS011;8368;48.772;8.754;2023-05-07T07:18:04;2.15;;;2.05;;
16510;SDS011;8368;48.772;8.754;2023-05-07T07:20:29;4.25;;;2.22;;
16510;SDS011;8368;48.772;8.754;2023-05-07T07:22:55;2.03;;;1.92;;
16510;SDS011;8368;48.772;8.754;2023-05-07T07:25:20;2.25;;;2.15;;
16510;SDS011;8368;48.772;8.754;2023-05-07T07:27:46;1.88;;;1.88;;
16510;SDS011;8368;48.772;8.754;2023-05-07T07:30:11;2.28;;;2.25;;
16510;SDS011;8368;48.772;8.754;2023-05-07T07:32:37;1.83;;;1.83;;
16510;SDS011;8368;48.772;8.754;2023-05-07T07:35:02;2.22;;;2.05;;
16510;SDS011;8368;48.772;8.754;2023-05-07T07:37:29;2.20;;;2.10;;
16510;SDS011;8368;48.772;8.754;2023-05-07T07:39:55;2.63;;;2.50;;
16510;SDS011;8368;48.772;8.754;2023-05-07T07:42:21;2.53;;;2.42;;
16510;SDS011;8368;48.772;8.754;2023-05-07T07:44:46;1.92;;;1.92;;
16510;SDS011;8368;48.772;8.754;2023-05-07T07:47:12;2.15;;;2.05;;
16510;SDS011;8368;48.772;8.754;2023-05-07T07:49:37;2.03;;;2.03;;
16510;SDS011;8368;48.772;8.754;2023-05-07T07:52:03;2.25;;;2.08;;
16510;SDS011;8368;48.772;8.754;2023-05-07T07:54:28;2.25;;;2.15;;
16510;SDS011;8368;48.772;8.754;2023-05-07T07:56:55;2.20;;;2.15;;
16510;SDS011;8368;48.772;8.754;2023-05-07T07:59:20;1.80;;;1.80;;
16510;SDS011;8368;48.772;8.754;2023-05-07T08:01:46;1.95;;;1.90;;
16510;SDS011;8368;48.772;8.754;2023-05-07T08:04:13;1.80;;;1.70;;
16510;SDS011;8368;48.772;8.754;2023-05-07T08:06:38;1.67;;;1.67;;
16510;SDS011;8368;48.772;8.754;2023-05-07T08:09:04;2.30;;;2.20;;
16510;SDS011;8368;48.772;8.754;2023-05-07T08:11:29;1.92;;;1.83;;
16510;SDS011;8368;48.772;8.754;2023-05-07T08:13:55;1.67;;;1.67;;
16510;SDS011;8368;48.772;8.754;2023-05-07T08:16:21;2.00;;;1.90;;
16510;SDS011;8368;48.772;8.754;2023-05-07T08:18:47;2.00;;;1.90;;
16510;SDS011;8368;48.772;8.754;2023-05-07T08:21:12;1.85;;;1.75;;
16510;SDS011;8368;48.772;8.754;2023-05-07T08:23:38;1.63;;;1.63;;
16510;SDS011;8368;48.772;8.754;2023-05-07T08:26:03;1.70;;;1.60;;
16510;SDS011;8368;48.772;8.754;2023-05-07T08:28:29;2.00;;;1.90;;
16510;SDS011;8368;48.772;8.754;2023-05-07T08:30:54;1.98;;;1.98;;
16510;SDS011;8368;48.772;8.754;2023-05-07T08:33:21;2.13;;;2.03;;
16510;SDS011;8368;48.772;8.754;2023-05-07T08:35:47;2.70;;;2.00;;
16510;SDS011;8368;48.772;8.754;2023-05-07T08:38:12;2.08;;;1.98;;
16510;SDS011;8368;48.772;8.754;2023-05-07T08:40:38;2.47;;;2.30;;
16510;SDS011;8368;48.772;8.754;2023-05-07T08:43:06;2.05;;;1.80;;
16510;SDS011;8368;48.772;8.754;2023-05-07T08:45:35;2.05;;;2.00;;
16510;SDS011;8368;48.772;8.754;2023-05-07T08:48:03;2.25;;;2.15;;
16510;SDS011;8368;48.772;8.754;2023-05-07T08:50:32;1.77;;;1.77;;
16510;SDS011;8368;48.772;8.754;2023-05-07T08:53:02;2.15;;;2.10;;
16510;SDS011;8368;48.772;8.754;2023-05-07T08:55:28;1.75;;;1.65;;
16510;SDS011;8368;48.772;8.754;2023-05-07T08:57:54;1.92;;;1.83;;
16510;SDS011;8368;48.772;8.754;2023-05-07T09:00:19;2.30;;;2.10;;
16510;SDS011;8368;48.772;8.754;2023-05-07T09:02:45;1.70;;;1.60;;
16510;SDS011;8368;48.772;8.754;2023-05-07T09:05:10;2.10;;;2.00;;
16510;SDS011;8368;48.772;8.754;2023-05-07T09:07:36;2.08;;;1.98;;
16510;SDS011;8368;48.772;8.754;2023-05-07T09:10:02;1.63;;;1.63;;
16510;SDS011;8368;48.772;8.754;2023-05-07T09:12:29;1.70;;;1.70;;
16510;SDS011;8368;48.772;8.754;2023-05-07T09:14:55;2.00;;;1.90;;
16510;SDS011;8368;48.772;8.754;2023-05-07T09:17:20;1.88;;;1.80;;
16510;SDS011;8368;48.772;8.754;2023-05-07T09:19:46;1.70;;;1.70;;
16510;SDS011;8368;48.772;8.754;2023-05-07T09:22:11;2.00;;;2.00;;
16510;SDS011;8368;48.772;8.754;2023-05-07T09:24:38;2.08;;;1.98;;
16510;SDS011;8368;48.772;8.754;2023-05-07T09:27:04;2.90;;;2.25;;
16510;SDS011;8368;48.772;8.754;2023-05-07T09:29:30;1.73;;;1.73;;
16510;SDS011;8368;48.772;8.754;2023-05-07T09:32:03;1.98;;;1.83;;
16510;SDS011;8368;48.772;8.754;2023-05-07T09:34:32;1.70;;;1.70;;
16510;SDS011;8368;48.772;8.754;2023-05-07T09:36:59;1.80;;;1.80;;
16510;SDS011;8368;48.772;8.754;2023-05-07T09:39:26;1.45;;;1.45;;
16510;SDS011;8368;48.772;8.754;2023-05-07T09:41:52;1.80;;;1.70;;
16510;SDS011;8368;48.772;8.754;2023-05-07T09:44:19;1.85;;;1.85;;
16510;SDS011;8368;48.772;8.754;2023-05-07T09:46:46;1.75;;;1.75;;
16510;SDS011;8368;48.772;8.754;2023-05-07T09:49:22;2.20;;;2.10;;
16510;SDS011;8368;48.772;8.754;2023-05-07T09:51:49;1.67;;;1.52;;
16510;SDS011;8368;48.772;8.754;2023-05-07T09:54:16;1.75;;;1.70;;
16510;SDS011;8368;48.772;8.754;2023-05-07T09:56:43;1.55;;;1.55;;
16510;SDS011;8368;48.772;8.754;2023-05-07T09:59:13;2.00;;;1.80;;
16510;SDS011;8368;48.772;8.754;2023-05-07T10:01:41;1.77;;;1.67;;
16510;SDS011;8368;48.772;8.754;2023-05-07T10:04:08;1.70;;;1.70;;
16510;SDS011;8368;48.772;8.754;2023-05-07T10:06:35;1.60;;;1.50;;
16510;SDS011;8368;48.772;8.754;2023-05-07T10:09:02;1.67;;;1.67;;
16510;SDS011;8368;48.772;8.754;2023-05-07T10:11:27;1.90;;;1.80;;
16510;SDS011;8368;48.772;8.754;2023-05-07T10:13:53;1.80;;;1.80;;
16510;SDS011;8368;48.772;8.754;2023-05-07T10:16:20;1.75;;;1.65;;
16510;SDS011;8368;48.772;8.754;2023-05-07T10:18:46;1.63;;;1.63;;
16510;SDS011;8368;48.772;8.754;2023-05-07T10:21:16;1.75;;;1.75;;
16510;SDS011;8368;48.772;8.754;2023-05-07T10:23:45;1.90;;;1.80;;
16510;SDS011;8368;48.772;8.754;2023-05-07T10:26:14;1.33;;;1.33;;
16510;SDS011;8368;48.772;8.754;2023-05-07T10:28:41;1.50;;;1.50;;
16510;SDS011;8368;48.772;8.754;2023-05-07T10:34:14;1.73;;;1.63;;
16510;SDS011;8368;48.772;8.754;2023-05-07T10:36:45;1.85;;;1.80;;
16510;SDS011;8368;48.772;8.754;2023-05-07T10:39:11;2.05;;;2.00;;
16510;SDS011;8368;48.772;8.754;2023-05-07T10:41:38;1.90;;;1.90;;
16510;SDS011;8368;48.772;8.754;2023-05-07T10:44:04;1.48;;;1.48;;
16510;SDS011;8368;48.772;8.754;2023-05-07T10:46:30;1.63;;;1.63;;
16510;SDS011;8368;48.772;8.754;2023-05-07T10:51:26;2.30;;;2.20;;
16510;SDS011;8368;48.772;8.754;2023-05-07T10:56:39;2.38;;;2.28;;
16510;SDS011;8368;48.772;8.754;2023-05-07T11:04:31;3.13;;;2.72;;
16510;SDS011;8368;48.772;8.754;2023-05-07T11:13:03;3.03;;;2.90;;
16510;SDS011;8368;48.772;8.754;2023-05-07T11:15:04;3.00;;;2.83;;
16510;SDS011;8368;48.772;8.754;2023-05-07T11:17:34;2.80;;;2.67;;
16510;SDS011;8368;48.772;8.754;2023-05-07T11:20:17;3.10;;;2.90;;
16510;SDS011;8368;48.772;8.754;2023-05-07T11:22:42;3.33;;;3.13;;
16510;SDS011;8368;48.772;8.754;2023-05-07T11:25:08;3.53;;;3.25;;
16510;SDS011;8368;48.772;8.754;2023-05-07T11:27:34;3.53;;;3.33;;
16510;SDS011;8368;48.772;8.754;2023-05-07T11:29:59;2.97;;;2.53;;
16510;SDS011;8368;48.772;8.754;2023-05-07T11:32:29;3.60;;;3.35;;
16510;SDS011;8368;48.772;8.754;2023-05-07T11:34:57;3.88;;;3.60;;
16510;SDS011;8368;48.772;8.754;2023-05-07T11:37:24;3.13;;;2.92;;
16510;SDS011;8368;48.772;8.754;2023-05-07T11:39:51;3.40;;;3.28;;
16510;SDS011;8368;48.772;8.754;2023-05-07T11:42:32;3.90;;;3.70;;
16510;SDS011;8368;48.772;8.754;2023-05-07T11:44:59;4.07;;;3.83;;
16510;SDS011;8368;48.772;8.754;2023-05-07T11:47:24;4.63;;;3.78;;
16510;SDS011;8368;48.772;8.754;2023-05-07T11:49:51;3.35;;;3.15;;
16510;SDS011;8368;48.772;8.754;2023-05-07T11:52:18;3.45;;;3.25;;
16510;SDS011;8368;48.772;8.754;2023-05-07T11:54:48;3.50;;;3.20;;
16510;SDS011;8368;48.772;8.754;2023-05-07T11:57:15;3.65;;;3.35;;
16510;SDS011;8368;48.772;8.754;2023-05-07T11:59:41;3.22;;;3.03;;
16510;SDS011;8368;48.772;8.754;2023-05-07T12:02:06;4.28;;;3.63;;
16510;SDS011;8368;48.772;8.754;2023-05-07T12:04:33;3.10;;;3.00;;
16510;SDS011;8368;48.772;8.754;2023-05-07T12:06:58;3.50;;;3.20;;
16510;SDS011;8368;48.772;8.754;2023-05-07T12:09:24;3.25;;;3.05;;
16510;SDS011;8368;48.772;8.754;2023-05-07T12:11:51;3.33;;;3.13;;
16510;SDS011;8368;48.772;8.754;2023-05-07T12:14:17;3.90;;;3.60;;
16510;SDS011;8368;48.772;8.754;2023-05-07T12:16:42;2.33;;;2.22;;
16510;SDS011;8368;48.772;8.754;2023-05-07T12:19:09;2.22;;;2.13;;
16510;SDS011;8368;48.772;8.754;2023-05-07T12:21:37;1.80;;;1.73;;
16510;SDS011;8368;48.772;8.754;2023-05-07T12:24:04;2.05;;;1.95;;
16510;SDS011;8368;48.772;8.754;2023-05-07T12:26:30;2.33;;;2.10;;
16510;SDS011;8368;48.772;8.754;2023-05-07T12:28:57;1.88;;;1.77;;
16510;SDS011;8368;48.772;8.754;2023-05-07T12:31:22;1.83;;;1.73;;
16510;SDS011;8368;48.772;8.754;2023-05-07T12:33:51;1.77;;;1.67;;
16510;SDS011;8368;48.772;8.754;2023-05-07T12:36:16;1.83;;;1.80;;
16510;SDS011;8368;48.772;8.754;2023-05-07T12:38:42;1.52;;;1.52;;
16510;SDS011;8368;48.772;8.754;2023-05-07T12:41:08;1.60;;;1.60;;
16510;SDS011;8368;48.772;8.754;2023-05-07T12:43:35;2.47;;;2.00;;
16510;SDS011;8368;48.772;8.754;2023-05-07T12:46:01;1.88;;;1.88;;
16510;SDS011;8368;48.772;8.754;2023-05-07T12:48:29;1.75;;;1.67;;
16510;SDS011;8368;48.772;8.754;2023-05-07T12:50:55;2.05;;;1.95;;
16510;SDS011;8368;48.772;8.754;2023-05-07T12:53:22;1.73;;;1.63;;
16510;SDS011;8368;48.772;8.754;2023-05-07T12:55:50;1.50;;;1.50;;
16510;SDS011;8368;48.772;8.754;2023-05-07T12:58:24;1.20;;;1.20;;
16510;SDS011;8368;48.772;8.754;2023-05-07T13:00:54;1.27;;;1.27;;
16510;SDS011;8368;48.772;8.754;2023-05-07T13:03:30;1.27;;;1.27;;
16510;SDS011;8368;48.772;8.754;2023-05-07T13:06:00;1.40;;;1.40;;
16510;SDS011;8368;48.772;8.754;2023-05-07T13:08:28;1.52;;;1.52;;
16510;SDS011;8368;48.772;8.754;2023-05-07T13:10:57;1.30;;;1.30;;
16510;SDS011;8368;48.772;8.754;2023-05-07T13:13:23;3.42;;;1.70;;
16510;SDS011;8368;48.772;8.754;2023-05-07T13:15:50;1.83;;;1.70;;
16510;SDS011;8368;48.772;8.754;2023-05-07T13:18:15;1.40;;;1.40;;
16510;SDS011;8368;48.772;8.754;2023-05-07T13:20:41;1.60;;;1.60;;
16510;SDS011;8368;48.772;8.754;2023-05-07T13:23:07;1.80;;;1.73;;
16510;SDS011;8368;48.772;8.754;2023-05-07T13:25:32;1.40;;;1.40;;
16510;SDS011;8368;48.772;8.754;2023-05-07T13:27:58;1.90;;;1.80;;
16510;SDS011;8368;48.772;8.754;2023-05-07T13:30:23;1.63;;;1.60;;
16510;SDS011;8368;48.772;8.754;2023-05-07T13:32:49;1.60;;;1.60;;
16510;SDS011;8368;48.772;8.754;2023-05-07T13:35:15;6.40;;;1.65;;
16510;SDS011;8368;48.772;8.754;2023-05-07T13:37:41;1.63;;;1.63;;
16510;SDS011;8368;48.772;8.754;2023-05-07T13:40:07;1.35;;;1.30;;
16510;SDS011;8368;48.772;8.754;2023-05-07T13:42:33;1.60;;;1.55;;
16510;SDS011;8368;48.772;8.754;2023-05-07T13:44:58;1.88;;;1.73;;
16510;SDS011;8368;48.772;8.754;2023-05-07T13:47:24;2.00;;;1.80;;
16510;SDS011;8368;48.772;8.754;2023-05-07T13:49:49;2.03;;;1.92;;
16510;SDS011;8368;48.772;8.754;2023-05-07T13:52:16;2.47;;;1.98;;
16510;SDS011;8368;48.772;8.754;2023-05-07T13:54:41;2.88;;;2.67;;
16510;SDS011;8368;48.772;8.754;2023-05-07T13:57:07;3.30;;;3.10;;
16510;SDS011;8368;48.772;8.754;2023-05-07T13:59:33;5.13;;;2.35;;
16510;SDS011;8368;48.772;8.754;2023-05-07T14:01:58;2.78;;;2.40;;
16510;SDS011;8368;48.772;8.754;2023-05-07T14:04:24;2.65;;;1.95;;
16510;SDS011;8368;48.772;8.754;2023-05-07T14:06:50;3.22;;;2.22;;
16510;SDS011;8368;48.772;8.754;2023-05-07T14:09:16;2.40;;;2.30;;
16510;SDS011;8368;48.772;8.754;2023-05-07T14:11:41;2.40;;;2.30;;
16510;SDS011;8368;48.772;8.754;2023-05-07T14:14:07;2.80;;;2.60;;
16510;SDS011;8368;48.772;8.754;2023-05-07T14:16:35;3.20;;;3.00;;
16510;SDS011;8368;48.772;8.754;2023-05-07T14:19:01;3.13;;;2.92;;
16510;SDS011;8368;48.772;8.754;2023-05-07T14:21:26;2.45;;;2.33;;
16510;SDS011;8368;48.772;8.754;2023-05-07T14:23:52;4.65;;;2.55;;
16510;SDS011;8368;48.772;8.754;2023-05-07T14:26:17;2.78;;;2.67;;
16510;SDS011;8368;48.772;8.754;2023-05-07T14:28:44;2.58;;;2.38;;
16510;SDS011;8368;48.772;8.754;2023-05-07T14:31:11;5.32;;;4.55;;
16510;SDS011;8368;48.772;8.754;2023-05-07T14:33:37;5.97;;;4.13;;
16510;SDS011;8368;48.772;8.754;2023-05-07T14:36:02;6.00;;;3.75;;
16510;SDS011;8368;48.772;8.754;2023-05-07T14:38:28;2.90;;;2.75;;
16510;SDS011;8368;48.772;8.754;2023-05-07T14:40:55;2.88;;;2.60;;
16510;SDS011;8368;48.772;8.754;2023-05-07T14:43:21;3.08;;;2.88;;
16510;SDS011;8368;48.772;8.754;2023-05-07T14:45:47;2.42;;;2.33;;
16510;SDS011;8368;48.772;8.754;2023-05-07T14:48:12;4.97;;;2.38;;
16510;SDS011;8368;48.772;8.754;2023-05-07T14:50:40;3.65;;;3.22;;
16510;SDS011;8368;48.772;8.754;2023-05-07T14:53:06;2.55;;;2.40;;
16510;SDS011;8368;48.772;8.754;2023-05-07T14:55:31;2.35;;;2.25;;
16510;SDS011;8368;48.772;8.754;2023-05-07T14:57:57;2.38;;;2.17;;
16510;SDS011;8368;48.772;8.754;2023-05-07T15:00:22;2.05;;;1.77;;
16510;SDS011;8368;48.772;8.754;2023-05-07T15:02:48;1.80;;;1.80;;
16510;SDS011;8368;48.772;8.754;2023-05-07T15:05:13;2.15;;;2.05;;
16510;SDS011;8368;48.772;8.754;2023-05-07T15:07:39;1.73;;;1.73;;
16510;SDS011;8368;48.772;8.754;2023-05-07T15:10:05;2.28;;;2.17;;
16510;SDS011;8368;48.772;8.754;2023-05-07T15:12:33;1.80;;;1.70;;
16510;SDS011;8368;48.772;8.754;2023-05-07T15:14:59;2.05;;;1.92;;